Time;durP1;ratioP1;P1;durP2;ratioP2;P2;SDS_P1;SDS_P2;PMS_P1;PMS_P2;Temp;Humidity;BMP_temperature;BMP_pressure;BME280_temperature;BME280_humidity;BME280_pressure;Samples;Min_cycle;Max_cycle;Signal;HPM_P1;HPM_P2
2023/06/18 00:00:56;;;;;;;8.47;7.13;;;24.50;67.80;;;;;;5089431;28;20962;-58
2023/06/18 00:03:22;;;;;;;6.57;5.70;;;24.50;67.80;;;;;;5087168;28;20529;-58
2023/06/18 00:05:49;;;;;;;8.10;6.30;;;24.50;67.80;;;;;;5092792;28;20467;-58
2023/06/18 00:08:15;;;;;;;6.70;6.00;;;24.50;67.80;;;;;;5091754;28;20471;-59
2023/06/18 00:10:44;;;;;;;7.70;6.30;;;24.50;67.80;;;;;;5099116;28;20493;-59
2023/06/18 00:13:10;;;;;;;7.83;6.63;;;24.50;68.20;;;;;;5089363;28;20786;-60
2023/06/18 00:15:37;;;;;;;7.00;6.30;;;24.50;67.80;;;;;;5091167;28;20935;-59
2023/06/18 00:18:04;;;;;;;6.23;5.60;;;24.50;67.80;;;;;;5088752;28;20484;-57
2023/06/18 00:20:32;;;;;;;8.63;5.90;;;24.50;67.80;;;;;;5094281;28;20472;-59
2023/06/18 00:22:59;;;;;;;6.73;6.03;;;24.50;67.80;;;;;;5097527;28;20456;-60
2023/06/18 00:25:26;;;;;;;8.57;6.70;;;24.50;67.90;;;;;;5089777;28;20448;-59
2023/06/18 00:27:55;;;;;;;6.33;5.73;;;24.50;67.90;;;;;;5093606;28;20471;-60
2023/06/18 00:30:22;;;;;;;7.40;5.50;;;24.50;67.90;;;;;;5075289;28;20463;-60
2023/06/18 00:32:49;;;;;;;7.80;6.70;;;24.50;67.80;;;;;;5076834;28;20555;-59
2023/06/18 00:35:16;;;;;;;6.67;6.07;;;24.50;67.90;;;;;;5083369;28;20460;-60
2023/06/18 00:37:44;;;;;;;6.00;5.40;;;24.50;67.90;;;;;;5084165;28;20468;-59
2023/06/18 00:40:12;;;;;;;7.23;6.53;;;24.50;67.90;;;;;;5078854;28;20468;-60
2023/06/18 00:42:39;;;;;;;6.43;5.40;;;24.50;67.90;;;;;;5075756;28;20461;-59
2023/06/18 00:45:09;;;;;;;8.60;6.83;;;24.50;67.90;;;;;;5072454;28;20464;-59
2023/06/18 00:47:36;;;;;;;5.57;5.03;;;24.50;67.90;;;;;;5080648;28;20466;-60
2023/06/18 00:50:05;;;;;;;6.10;5.00;;;24.50;67.90;;;;;;5076155;28;20460;-59
2023/06/18 00:52:35;;;;;;;6.73;5.63;;;24.50;67.90;;;;;;5089143;28;20440;-59
2023/06/18 00:55:03;;;;;;;7.03;5.73;;;24.50;67.90;;;;;;5082521;28;20864;-60
2023/06/18 00:57:31;;;;;;;6.93;5.83;;;24.50;68.00;;;;;;5075957;28;20576;-60
2023/06/18 00:59:58;;;;;;;6.03;5.20;;;24.50;68.00;;;;;;5073797;28;20457;-59
2023/06/18 01:02:26;;;;;;;6.10;5.50;;;24.50;68.00;;;;;;5086840;28;20460;-60
2023/06/18 01:04:55;;;;;;;5.20;4.70;;;24.50;67.90;;;;;;5077118;28;20831;-59
2023/06/18 01:07:22;;;;;;;8.27;6.57;;;24.50;67.90;;;;;;5077689;28;20453;-60
2023/06/18 01:09:53;;;;;;;6.50;5.80;;;24.50;68.00;;;;;;5082296;28;20457;-59
2023/06/18 01:12:21;;;;;;;6.90;5.30;;;24.50;68.10;;;;;;5078090;28;20535;-60
2023/06/18 01:14:50;;;;;;;5.87;5.00;;;24.50;68.00;;;;;;5085008;28;20556;-60
2023/06/18 01:17:18;;;;;;;6.57;5.97;;;24.50;68.00;;;;;;5077623;28;20460;-59
2023/06/18 01:19:49;;;;;;;6.70;6.07;;;24.50;68.00;;;;;;5079163;28;20957;-59
2023/06/18 01:22:32;;;;;;;6.63;6.03;;;24.50;68.00;;;;;;5082147;28;20490;-59
2023/06/18 01:25:02;;;;;;;6.90;5.90;;;24.50;68.00;;;;;;5084912;28;20582;-59
2023/06/18 01:27:33;;;;;;;6.33;5.33;;;24.50;68.00;;;;;;5078804;28;20460;-59
2023/06/18 01:30:01;;;;;;;6.17;5.60;;;24.50;68.00;;;;;;5073621;28;20460;-59
2023/06/18 01:32:28;;;;;;;6.17;5.40;;;24.50;68.00;;;;;;5086143;28;20455;-59
2023/06/18 01:34:56;;;;;;;6.97;6.00;;;24.50;68.00;;;;;;5071001;28;20506;-59
2023/06/18 01:37:33;;;;;;;6.73;5.80;;;24.50;68.00;;;;;;5083500;28;20459;-59
2023/06/18 01:40:08;;;;;;;6.80;6.20;;;24.50;68.10;;;;;;5076720;28;20610;-58
2023/06/18 01:42:41;;;;;;;6.37;5.67;;;24.50;68.10;;;;;;5081080;28;20451;-59
2023/06/18 01:45:12;;;;;;;8.00;5.70;;;24.50;68.10;;;;;;5075572;28;20464;-59
2023/06/18 01:47:43;;;;;;;5.73;5.10;;;24.50;68.10;;;;;;5080962;28;20453;-60
2023/06/18 01:50:13;;;;;;;5.87;4.77;;;24.50;68.10;;;;;;5073241;28;20467;-59
2023/06/18 01:52:44;;;;;;;5.50;5.00;;;24.50;68.10;;;;;;5075515;28;20666;-59
2023/06/18 01:55:11;;;;;;;5.60;5.10;;;24.50;68.10;;;;;;5074652;28;20476;-60
2023/06/18 01:57:39;;;;;;;6.67;5.80;;;24.50;68.10;;;;;;5076754;28;20829;-58
2023/06/18 02:00:08;;;;;;;7.47;6.73;;;24.50;68.10;;;;;;5072399;28;20692;-59
2023/06/18 02:02:35;;;;;;;5.50;5.00;;;24.50;68.10;;;;;;5079665;28;20971;-59
2023/06/18 02:05:02;;;;;;;6.90;6.20;;;24.50;68.10;;;;;;5081693;28;20455;-59
2023/06/18 02:07:30;;;;;;;5.97;4.90;;;24.50;68.10;;;;;;5078227;28;20507;-59
2023/06/18 02:09:56;;;;;;;6.23;5.67;;;24.50;68.10;;;;;;5082507;28;20467;-59
2023/06/18 02:12:23;;;;;;;6.47;5.87;;;24.50;68.10;;;;;;5074456;28;20460;-59
2023/06/18 02:14:50;;;;;;;6.10;5.50;;;24.40;67.90;;;;;;5083542;28;20460;-59
2023/06/18 02:17:17;;;;;;;6.20;5.07;;;24.50;68.10;;;;;;5075432;28;20468;-59
2023/06/18 02:19:44;;;;;;;5.43;4.97;;;24.50;68.10;;;;;;5074274;28;20877;-59
2023/06/18 02:22:10;;;;;;;5.50;4.97;;;24.50;68.10;;;;;;5074539;28;21028;-58
2023/06/18 02:24:38;;;;;;;5.33;4.83;;;24.50;68.10;;;;;;5079310;28;20477;-59
2023/06/18 02:27:05;;;;;;;6.87;6.27;;;24.50;68.10;;;;;;5075162;28;20825;-59
2023/06/18 02:29:32;;;;;;;5.57;5.03;;;24.50;68.10;;;;;;5074100;28;20464;-59
2023/06/18 02:31:59;;;;;;;6.03;5.40;;;24.50;68.10;;;;;;5078883;28;20827;-59
2023/06/18 02:34:27;;;;;;;5.70;5.20;;;24.50;68.10;;;;;;5076083;28;20462;-59
2023/06/18 02:36:54;;;;;;;5.73;5.13;;;24.50;68.10;;;;;;5076746;28;20444;-59
2023/06/18 02:39:21;;;;;;;6.20;5.60;;;24.50;68.10;;;;;;5075062;28;20483;-58
2023/06/18 02:41:49;;;;;;;6.40;5.30;;;24.50;68.10;;;;;;5076786;28;20532;-59
2023/06/18 02:44:15;;;;;;;5.80;4.90;;;24.50;68.90;;;;;;5074174;28;20911;-59
2023/06/18 02:46:42;;;;;;;6.07;5.30;;;24.40;67.90;;;;;;5074469;28;20956;-59
2023/06/18 02:49:09;;;;;;;6.53;5.20;;;24.40;68.00;;;;;;5075500;28;20476;-58
2023/06/18 02:51:37;;;;;;;6.33;5.73;;;24.50;68.10;;;;;;5078211;28;20452;-59
2023/06/18 02:54:03;;;;;;;5.87;5.27;;;24.40;68.00;;;;;;5076226;28;20468;-59
2023/06/18 02:56:30;;;;;;;6.70;4.93;;;24.40;68.00;;;;;;5077283;28;20460;-59
2023/06/18 02:58:58;;;;;;;5.50;5.07;;;24.40;68.00;;;;;;5075259;28;20472;-59
2023/06/18 03:01:25;;;;;;;5.33;4.83;;;24.40;68.00;;;;;;5077268;28;20456;-59
2023/06/18 03:03:53;;;;;;;5.53;5.03;;;24.40;68.00;;;;;;5073912;28;20453;-59
2023/06/18 03:06:20;;;;;;;4.97;4.50;;;24.40;68.80;;;;;;5077516;28;20453;-58
2023/06/18 03:08:47;;;;;;;4.43;4.03;;;24.40;68.00;;;;;;5082075;28;20484;-59
2023/06/18 03:11:13;;;;;;;6.57;5.43;;;24.40;68.10;;;;;;5076283;28;20451;-59
2023/06/18 03:13:40;;;;;;;5.77;5.20;;;24.40;68.10;;;;;;5079675;28;20861;-58
2023/06/18 03:16:08;;;;;;;6.23;5.63;;;24.40;68.10;;;;;;5071123;28;21002;-59
2023/06/18 03:18:35;;;;;;;6.13;5.57;;;24.40;68.10;;;;;;5072558;28;20477;-60
2023/06/18 03:21:02;;;;;;;6.03;5.33;;;24.40;68.10;;;;;;5074819;28;20453;-59
2023/06/18 03:23:28;;;;;;;5.70;5.00;;;24.40;68.10;;;;;;5079419;28;20473;-59
2023/06/18 03:25:55;;;;;;;4.97;4.50;;;24.40;68.10;;;;;;5085657;28;20455;-60
2023/06/18 03:28:22;;;;;;;5.80;5.30;;;24.40;68.10;;;;;;5076739;28;20529;-59
2023/06/18 03:30:49;;;;;;;4.97;4.43;;;24.40;68.10;;;;;;5079871;28;20547;-59
2023/06/18 03:33:17;;;;;;;5.00;4.50;;;24.40;68.10;;;;;;5069506;28;20533;-59
2023/06/18 03:35:46;;;;;;;5.50;5.00;;;24.40;68.10;;;;;;5071065;28;20560;-59
2023/06/18 03:38:13;;;;;;;6.77;5.47;;;24.40;68.10;;;;;;5076662;28;20574;-59
2023/06/18 03:40:40;;;;;;;5.10;4.70;;;24.40;68.90;;;;;;5069264;28;20479;-60
2023/06/18 03:43:07;;;;;;;5.30;4.80;;;24.40;68.10;;;;;;5074605;28;21005;-59
2023/06/18 03:45:34;;;;;;;5.57;5.07;;;24.40;68.10;;;;;;5074068;28;20460;-60
2023/06/18 03:48:01;;;;;;;7.33;5.50;;;24.40;68.10;;;;;;5080480;28;20465;-60
2023/06/18 03:50:29;;;;;;;5.40;5.00;;;24.40;68.10;;;;;;5077346;28;20461;-59
2023/06/18 03:52:56;;;;;;;5.37;4.90;;;24.40;68.10;;;;;;5080118;28;20523;-59
2023/06/18 03:55:22;;;;;;;5.63;4.87;;;24.40;68.10;;;;;;5079517;28;20453;-60
2023/06/18 03:57:49;;;;;;;6.37;5.23;;;24.40;68.10;;;;;;5069913;28;20455;-59
2023/06/18 04:00:16;;;;;;;5.83;5.23;;;24.40;68.10;;;;;;5067795;28;20870;-57
2023/06/18 04:02:43;;;;;;;5.00;4.60;;;24.40;68.10;;;;;;5072673;28;20534;-59
2023/06/18 04:05:10;;;;;;;6.13;5.20;;;24.40;68.10;;;;;;5076352;28;20456;-59
2023/06/18 04:07:38;;;;;;;7.87;5.37;;;24.40;68.10;;;;;;5077652;28;20459;-59
2023/06/18 04:10:06;;;;;;;6.43;5.03;;;24.40;68.10;;;;;;5084938;28;20502;-59
2023/06/18 04:12:32;;;;;;;5.33;4.83;;;24.40;68.20;;;;;;5074340;28;20455;-59
2023/06/18 04:14:59;;;;;;;5.20;4.70;;;24.40;68.10;;;;;;5081064;28;20955;-59
2023/06/18 04:17:26;;;;;;;4.83;4.30;;;24.40;68.10;;;;;;5081589;28;20463;-59
2023/06/18 04:19:53;;;;;;;5.30;4.60;;;24.40;68.10;;;;;;5078541;28;20476;-59
2023/06/18 04:22:20;;;;;;;5.93;4.90;;;24.40;68.20;;;;;;5080684;28;20449;-59
2023/06/18 04:24:48;;;;;;;4.80;4.30;;;24.40;68.10;;;;;;5077279;28;21021;-59
2023/06/18 04:27:14;;;;;;;5.90;5.40;;;24.40;68.20;;;;;;5082504;28;20998;-59
2023/06/18 04:29:41;;;;;;;5.80;5.30;;;24.40;68.20;;;;;;5077861;28;20463;-59
2023/06/18 04:32:08;;;;;;;5.67;5.10;;;24.40;68.20;;;;;;5079805;28;20464;-60
2023/06/18 04:34:35;;;;;;;7.83;5.37;;;24.40;68.10;;;;;;5080885;28;20536;-59
2023/06/18 04:37:02;;;;;;;5.00;4.50;;;24.40;68.20;;;;;;5082773;28;20464;-59
2023/06/18 04:39:28;;;;;;;5.77;4.97;;;24.40;68.20;;;;;;5081661;28;20473;-59
2023/06/18 04:41:56;;;;;;;4.70;4.30;;;24.40;68.20;;;;;;5077884;28;20832;-60
2023/06/18 04:44:23;;;;;;;4.83;4.33;;;24.40;68.20;;;;;;5073736;28;20449;-58
2023/06/18 04:46:50;;;;;;;6.27;5.63;;;24.40;68.20;;;;;;5075354;28;20460;-57
2023/06/18 04:49:16;;;;;;;6.43;5.30;;;24.40;68.20;;;;;;5072502;28;20510;-59
2023/06/18 04:51:43;;;;;;;5.00;4.50;;;24.40;68.20;;;;;;5083101;28;20547;-59
2023/06/18 04:54:11;;;;;;;5.30;4.80;;;24.40;68.20;;;;;;5076889;28;20464;-59
2023/06/18 04:56:38;;;;;;;5.90;4.70;;;24.40;68.20;;;;;;5077640;28;20452;-57
2023/06/18 04:59:06;;;;;;;4.10;3.70;;;24.40;68.30;;;;;;5074062;28;20485;-59
2023/06/18 05:01:33;;;;;;;5.43;4.93;;;24.40;68.20;;;;;;5075280;28;20453;-57
2023/06/18 05:03:59;;;;;;;4.07;3.70;;;24.40;68.20;;;;;;5075019;28;20511;-59
2023/06/18 05:06:26;;;;;;;5.33;4.83;;;24.30;68.10;;;;;;5083575;28;20453;-59
2023/06/18 05:08:53;;;;;;;5.40;4.90;;;24.40;68.20;;;;;;5077877;28;20802;-59
2023/06/18 05:11:19;;;;;;;4.13;3.83;;;24.30;68.10;;;;;;5080244;28;20453;-59
2023/06/18 05:13:46;;;;;;;5.60;5.10;;;24.40;68.30;;;;;;5086535;28;20463;-59
2023/06/18 05:16:14;;;;;;;4.70;4.30;;;24.40;68.30;;;;;;5075799;28;20460;-58
2023/06/18 05:18:41;;;;;;;6.90;4.40;;;24.40;68.30;;;;;;5084874;28;20464;-59
2023/06/18 05:21:07;;;;;;;4.33;3.93;;;24.40;68.30;;;;;;5087395;28;20467;-59
2023/06/18 05:23:34;;;;;;;4.90;4.50;;;24.40;68.30;;;;;;5083261;28;20476;-59
2023/06/18 05:26:01;;;;;;;5.50;4.97;;;24.40;68.30;;;;;;5076498;28;20499;-59
2023/06/18 05:28:27;;;;;;;5.30;4.80;;;24.30;68.20;;;;;;5076424;28;20961;-59
2023/06/18 05:30:54;;;;;;;4.27;3.87;;;24.40;68.30;;;;;;5072589;28;20829;-59
2023/06/18 05:33:22;;;;;;;7.13;5.37;;;24.30;68.20;;;;;;5077195;28;20464;-59
2023/06/18 05:35:49;;;;;;;4.43;4.03;;;24.40;68.30;;;;;;5080456;28;20478;-59
2023/06/18 05:38:16;;;;;;;5.30;4.87;;;24.30;68.20;;;;;;5079615;28;20552;-59
2023/06/18 05:40:42;;;;;;;6.00;5.40;;;24.40;68.40;;;;;;5086291;28;20473;-60
2023/06/18 05:43:09;;;;;;;5.27;4.80;;;24.30;68.30;;;;;;5077077;28;20456;-59
2023/06/18 05:45:37;;;;;;;4.93;4.47;;;24.40;68.40;;;;;;5073149;28;20465;-57
2023/06/18 05:48:04;;;;;;;4.80;4.40;;;24.30;68.30;;;;;;5077647;28;20456;-59
2023/06/18 05:50:32;;;;;;;5.07;4.57;;;24.30;68.30;;;;;;5081730;28;20468;-59
2023/06/18 05:52:59;;;;;;;6.10;4.33;;;24.30;68.30;;;;;;5076864;28;20464;-59
2023/06/18 05:55:25;;;;;;;4.90;4.50;;;24.30;68.30;;;;;;5072222;28;20458;-59
2023/06/18 05:57:52;;;;;;;5.20;4.70;;;24.30;68.30;;;;;;5063541;28;20464;-59
2023/06/18 06:00:18;;;;;;;4.57;4.17;;;24.30;68.30;;;;;;5070512;28;21075;-59
2023/06/18 06:02:46;;;;;;;5.93;4.43;;;24.30;68.30;;;;;;5080308;28;20460;-60
2023/06/18 06:05:12;;;;;;;4.93;4.40;;;24.30;68.40;;;;;;5070944;28;20457;-59
2023/06/18 06:07:40;;;;;;;5.23;4.73;;;24.30;68.40;;;;;;5070105;28;20802;-60
2023/06/18 06:10:08;;;;;;;5.83;5.10;;;24.30;68.40;;;;;;5077143;28;20468;-59
2023/06/18 06:12:35;;;;;;;5.27;4.77;;;24.30;68.40;;;;;;5068260;28;20467;-59
2023/06/18 06:15:01;;;;;;;5.10;4.43;;;24.30;68.40;;;;;;5071437;28;20458;-59
2023/06/18 06:17:29;;;;;;;4.80;4.40;;;24.30;68.40;;;;;;5083689;28;20532;-59
2023/06/18 06:19:55;;;;;;;5.50;5.00;;;24.30;68.40;;;;;;5072394;28;20484;-59
2023/06/18 06:22:22;;;;;;;6.00;5.40;;;24.30;68.40;;;;;;5077535;28;20457;-59
2023/06/18 06:24:50;;;;;;;4.10;3.80;;;24.30;68.40;;;;;;5079428;28;20472;-59
2023/06/18 06:27:17;;;;;;;5.00;4.60;;;24.30;68.40;;;;;;5070805;28;22622;-59
2023/06/18 06:29:44;;;;;;;4.67;4.27;;;24.30;68.50;;;;;;5075833;28;20457;-59
2023/06/18 06:32:11;;;;;;;5.07;4.53;;;24.30;68.40;;;;;;5073290;28;20853;-59
2023/06/18 06:34:37;;;;;;;4.80;4.40;;;24.30;69.30;;;;;;5077057;28;20480;-59
2023/06/18 06:37:04;;;;;;;4.60;4.20;;;24.30;68.40;;;;;;5069101;28;20457;-59
2023/06/18 06:39:31;;;;;;;5.50;4.50;;;24.30;68.50;;;;;;5081923;28;20477;-59
2023/06/18 06:41:59;;;;;;;6.27;5.67;;;24.30;68.50;;;;;;5069100;28;20509;-57
2023/06/18 06:44:26;;;;;;;4.57;4.13;;;24.30;68.60;;;;;;5074272;28;20960;-56
2023/06/18 06:46:52;;;;;;;5.00;4.50;;;24.30;68.60;;;;;;5072419;28;20461;-56
2023/06/18 06:49:19;;;;;;;5.10;4.70;;;24.30;68.60;;;;;;5075696;28;20457;-59
2023/06/18 06:51:48;;;;;;;4.70;4.30;;;24.30;68.60;;;;;;5071601;28;20460;-58
2023/06/18 06:54:14;;;;;;;5.80;5.30;;;24.30;68.60;;;;;;5073469;28;20457;-56
2023/06/18 06:56:41;;;;;;;5.20;4.70;;;24.30;68.60;;;;;;5070435;28;20457;-59
2023/06/18 06:59:09;;;;;;;6.10;5.20;;;24.30;68.60;;;;;;5073073;28;20498;-56
2023/06/18 07:01:36;;;;;;;5.43;5.00;;;24.30;68.60;;;;;;5083300;28;20467;-56
2023/06/18 07:04:03;;;;;;;5.00;4.60;;;24.30;68.60;;;;;;5078208;28;20563;-58
2023/06/18 07:06:30;;;;;;;5.50;5.03;;;24.30;68.70;;;;;;5072881;28;20540;-59
2023/06/18 07:08:59;;;;;;;5.47;4.97;;;24.30;68.60;;;;;;5074486;28;20461;-59
2023/06/18 07:11:25;;;;;;;5.70;4.90;;;24.30;68.60;;;;;;5077337;28;20484;-57
2023/06/18 07:13:52;;;;;;;4.60;4.27;;;24.30;68.70;;;;;;5074033;28;20452;-57
2023/06/18 07:16:20;;;;;;;5.47;5.00;;;24.30;68.70;;;;;;5075246;28;20456;-60
2023/06/18 07:18:47;;;;;;;5.00;4.50;;;24.30;68.70;;;;;;5073730;28;20960;-55
2023/06/18 07:21:13;;;;;;;5.53;4.33;;;24.30;68.70;;;;;;5072010;28;20476;-57
2023/06/18 07:23:40;;;;;;;5.83;4.57;;;24.30;68.70;;;;;;5076724;28;20476;-55
2023/06/18 07:26:07;;;;;;;4.57;4.27;;;24.30;68.70;;;;;;5073596;28;20452;-58
2023/06/18 07:28:33;;;;;;;5.00;4.60;;;24.30;68.70;;;;;;5078423;28;20488;-57
2023/06/18 07:31:00;;;;;;;5.43;4.70;;;24.30;68.70;;;;;;5072560;28;20510;-56
2023/06/18 07:33:28;;;;;;;4.60;4.20;;;24.30;68.70;;;;;;5072384;28;20457;-60
2023/06/18 07:35:55;;;;;;;5.33;4.80;;;24.30;68.80;;;;;;5078035;28;20471;-59
2023/06/18 07:38:22;;;;;;;4.63;4.23;;;24.40;68.90;;;;;;5083506;28;20564;-57
2023/06/18 07:40:50;;;;;;;5.10;4.70;;;24.30;68.80;;;;;;5083655;28;20478;-57
2023/06/18 07:43:16;;;;;;;4.73;4.33;;;24.30;68.80;;;;;;5077263;28;20833;-58
2023/06/18 07:45:43;;;;;;;4.80;4.40;;;24.30;68.80;;;;;;5080610;28;20452;-59
2023/06/18 07:48:10;;;;;;;4.97;4.57;;;24.30;68.80;;;;;;5083863;28;20457;-58
2023/06/18 07:50:38;;;;;;;3.90;3.60;;;24.30;68.90;;;;;;5082756;28;20966;-56
2023/06/18 07:53:05;;;;;;;5.53;5.03;;;24.30;68.80;;;;;;5082496;28;20879;-58
2023/06/18 07:55:31;;;;;;;5.53;4.30;;;24.30;68.80;;;;;;5076136;28;20452;-57
2023/06/18 07:57:58;;;;;;;4.43;3.80;;;24.30;68.90;;;;;;5073759;28;20452;-57
2023/06/18 08:00:25;;;;;;;5.40;4.90;;;24.30;68.90;;;;;;5078516;28;20484;-57
2023/06/18 08:02:52;;;;;;;4.40;4.00;;;24.30;68.90;;;;;;5071689;28;20460;-58
2023/06/18 08:05:19;;;;;;;5.10;4.60;;;24.30;68.90;;;;;;5081434;28;20539;-59
2023/06/18 08:07:47;;;;;;;4.97;4.47;;;24.40;69.10;;;;;;5072301;28;20991;-57
2023/06/18 08:10:13;;;;;;;5.00;4.60;;;24.40;69.20;;;;;;5083878;28;20518;-59
2023/06/18 08:12:40;;;;;;;3.50;3.20;;;24.40;69.10;;;;;;5074946;28;20460;-59
2023/06/18 08:15:07;;;;;;;4.20;3.90;;;24.40;69.20;;;;;;5077501;28;20471;-56
2023/06/18 08:17:34;;;;;;;4.57;4.17;;;24.40;69.20;;;;;;5080318;28;20464;-59
2023/06/18 08:20:01;;;;;;;4.47;4.07;;;24.40;69.20;;;;;;5074798;28;20507;-57
2023/06/18 08:22:28;;;;;;;4.50;4.10;;;24.30;69.20;;;;;;5083538;28;20875;-57
2023/06/18 08:24:56;;;;;;;4.20;3.87;;;24.40;69.30;;;;;;5076032;28;20483;-59
2023/06/18 08:27:22;;;;;;;4.57;4.13;;;24.40;69.30;;;;;;5082611;28;20455;-59
2023/06/18 08:29:49;;;;;;;3.70;3.40;;;24.40;69.30;;;;;;5075811;28;20463;-56
2023/06/18 08:32:16;;;;;;;5.40;4.00;;;24.40;69.30;;;;;;5077856;28;23150;-59
2023/06/18 08:34:43;;;;;;;4.30;3.90;;;24.40;69.30;;;;;;5077373;28;20460;-59
2023/06/18 08:37:10;;;;;;;4.63;4.23;;;24.40;69.40;;;;;;5080428;28;20543;-58
2023/06/18 08:39:37;;;;;;;4.23;3.73;;;24.40;69.40;;;;;;5085700;28;20550;-59
2023/06/18 08:42:06;;;;;;;4.73;4.33;;;24.40;69.60;;;;;;5082623;28;20456;-57
2023/06/18 08:44:34;;;;;;;5.17;4.67;;;24.40;69.60;;;;;;5076919;28;20518;-59
2023/06/18 08:47:04;;;;;;;3.80;3.50;;;24.40;69.60;;;;;;5080137;28;20560;-59
2023/06/18 08:49:31;;;;;;;5.03;3.87;;;24.40;69.80;;;;;;5073773;28;20544;-59
2023/06/18 08:52:01;;;;;;;6.27;4.77;;;24.40;69.90;;;;;;5076283;28;20456;-59
2023/06/18 08:54:32;;;;;;;5.67;5.17;;;24.40;69.90;;;;;;5075057;28;20472;-59
2023/06/18 08:57:05;;;;;;;4.63;4.20;;;24.40;70.00;;;;;;5081808;28;20867;-59
2023/06/18 08:59:35;;;;;;;3.63;3.33;;;24.40;69.90;;;;;;5071556;28;20461;-60
2023/06/18 09:02:04;;;;;;;4.80;4.40;;;24.40;70.00;;;;;;5077709;28;20518;-59
2023/06/18 09:04:32;;;;;;;4.57;4.20;;;24.40;70.10;;;;;;5075991;28;20457;-59
2023/06/18 09:06:59;;;;;;;5.47;4.97;;;24.40;70.10;;;;;;5075731;28;20452;-59
2023/06/18 09:09:27;;;;;;;4.57;4.07;;;24.40;70.10;;;;;;5070226;28;20463;-59
2023/06/18 09:11:54;;;;;;;5.80;4.43;;;24.40;70.10;;;;;;5083005;28;20770;-59
2023/06/18 09:14:21;;;;;;;6.00;5.40;;;24.40;70.10;;;;;;5075181;28;20456;-60
2023/06/18 09:16:49;;;;;;;4.63;4.23;;;24.40;70.30;;;;;;5074025;28;20456;-59
2023/06/18 09:19:16;;;;;;;6.40;4.47;;;24.40;70.30;;;;;;5074092;28;20456;-59
2023/06/18 09:21:44;;;;;;;4.53;4.13;;;24.40;70.30;;;;;;5081386;28;20567;-59
2023/06/18 09:24:23;;;;;;;5.67;4.63;;;24.40;70.40;;;;;;5077577;28;20480;-59
2023/06/18 09:26:59;;;;;;;6.37;5.50;;;24.40;70.40;;;;;;5077038;28;20828;-59
2023/06/18 09:29:29;;;;;;;7.03;5.57;;;24.40;70.40;;;;;;5077975;28;20538;-59
2023/06/18 09:31:57;;;;;;;5.20;4.80;;;24.40;70.40;;;;;;5085172;28;20975;-57
2023/06/18 09:34:23;;;;;;;5.60;4.90;;;24.40;70.40;;;;;;5074967;28;20465;-60
2023/06/18 09:36:51;;;;;;;5.00;4.60;;;24.40;70.30;;;;;;5058047;28;20455;-59
2023/06/18 09:39:19;;;;;;;6.43;4.67;;;24.40;70.40;;;;;;5065166;28;20463;-56
2023/06/18 09:41:47;;;;;;;7.23;5.37;;;24.50;70.40;;;;;;5076338;28;20917;-55
2023/06/18 09:44:14;;;;;;;6.50;5.10;;;24.40;70.30;;;;;;5071362;28;20459;-57
2023/06/18 09:46:44;;;;;;;6.20;5.70;;;24.40;70.30;;;;;;5068142;28;20449;-57
2023/06/18 09:49:14;;;;;;;5.67;5.23;;;24.50;70.30;;;;;;5074229;28;20460;-56
2023/06/18 09:51:41;;;;;;;6.47;5.37;;;24.40;70.20;;;;;;5071163;28;20467;-57
2023/06/18 09:54:08;;;;;;;5.50;5.00;;;24.40;70.20;;;;;;5074797;28;20452;-60
2023/06/18 09:56:35;;;;;;;6.00;4.97;;;24.50;70.40;;;;;;5076976;28;20488;-56
2023/06/18 09:59:03;;;;;;;11.70;5.70;;;24.40;70.30;;;;;;5075080;28;20530;-60
2023/06/18 10:01:32;;;;;;;5.80;4.77;;;24.50;70.30;;;;;;5074810;28;21010;-59
2023/06/18 10:03:58;;;;;;;5.43;4.93;;;24.50;71.00;;;;;;5071538;28;20510;-59
2023/06/18 10:06:28;;;;;;;6.57;5.37;;;24.50;69.80;;;;;;5074251;28;20465;-59
2023/06/18 10:08:59;;;;;;;6.00;5.50;;;24.50;69.70;;;;;;5081681;28;20460;-59
2023/06/18 10:11:26;;;;;;;6.80;6.20;;;24.50;69.60;;;;;;5068365;28;20464;-59
2023/06/18 10:13:56;;;;;;;5.50;5.00;;;24.50;69.50;;;;;;5077839;28;20449;-59
2023/06/18 10:16:26;;;;;;;6.40;5.80;;;24.40;69.50;;;;;;5073577;28;20544;-58
2023/06/18 10:19:02;;;;;;;5.60;5.10;;;24.50;69.50;;;;;;5071814;28;20473;-60
2023/06/18 10:21:34;;;;;;;9.63;5.40;;;24.40;69.10;;;;;;5073358;28;20476;-59
2023/06/18 10:24:09;;;;;;;6.70;6.10;;;24.40;69.00;;;;;;5084503;28;20482;-60
2023/06/18 10:26:38;;;;;;;5.93;5.33;;;24.50;68.90;;;;;;5071552;28;20820;-58
2023/06/18 10:29:06;;;;;;;8.20;6.03;;;24.40;68.70;;;;;;5075569;28;20453;-60
2023/06/18 10:31:33;;;;;;;6.37;5.80;;;24.40;68.70;;;;;;5079526;28;20463;-58
2023/06/18 10:34:00;;;;;;;5.37;4.87;;;24.50;68.70;;;;;;5069384;28;20479;-59
2023/06/18 10:36:28;;;;;;;5.43;4.93;;;24.50;68.70;;;;;;5078003;28;20453;-59
2023/06/18 10:38:57;;;;;;;5.17;4.73;;;24.50;68.70;;;;;;5074781;28;20475;-58
2023/06/18 10:41:24;;;;;;;6.50;5.90;;;24.50;68.70;;;;;;5080329;28;20591;-59
2023/06/18 10:43:52;;;;;;;7.00;6.40;;;24.50;68.70;;;;;;5084695;28;20444;-59
2023/06/18 10:46:20;;;;;;;7.90;5.40;;;24.40;68.60;;;;;;5064599;28;20567;-59
2023/06/18 10:49:15;;;;;;;6.33;5.73;;;24.50;68.70;;;;;;5081075;28;20543;-59
2023/06/18 10:51:42;;;;;;;4.90;4.50;;;24.50;68.80;;;;;;5071170;28;20452;-59
2023/06/18 10:54:24;;;;;;;6.97;6.37;;;24.50;68.80;;;;;;5074590;28;20500;-60
2023/06/18 10:56:52;;;;;;;6.20;5.03;;;24.50;68.90;;;;;;5070017;28;20464;-59
2023/06/18 10:59:34;;;;;;;6.77;6.13;;;24.50;68.70;;;;;;5072190;28;20548;-59
2023/06/18 11:02:01;;;;;;;5.80;5.27;;;24.50;68.70;;;;;;5057062;28;20567;-59
2023/06/18 11:04:30;;;;;;;7.20;6.50;;;24.50;68.60;;;;;;5061023;28;20448;-61
2023/06/18 11:07:15;;;;;;;9.50;5.67;;;24.50;68.60;;;;;;5074286;28;20533;-61
2023/06/18 11:09:52;;;;;;;6.53;5.53;;;24.50;68.80;;;;;;5075714;28;21035;-60
2023/06/18 11:12:23;;;;;;;5.50;5.10;;;24.50;68.90;;;;;;5077319;28;20451;-60
2023/06/18 11:15:06;;;;;;;6.47;5.90;;;24.50;69.70;;;;;;5070829;28;20964;-60
2023/06/18 11:17:33;;;;;;;6.10;5.23;;;24.50;68.80;;;;;;5071832;28;20978;-60
2023/06/18 11:20:01;;;;;;;5.73;5.00;;;24.50;68.80;;;;;;5069916;28;20456;-60
2023/06/18 11:22:29;;;;;;;6.33;5.17;;;24.50;68.80;;;;;;5068025;28;20824;-61
2023/06/18 11:24:58;;;;;;;7.73;5.37;;;24.50;68.70;;;;;;5065060;28;20497;-63
2023/06/18 11:27:25;;;;;;;6.73;6.13;;;24.50;68.60;;;;;;5072391;28;20457;-59
2023/06/18 11:29:55;;;;;;;5.73;5.23;;;24.50;68.50;;;;;;5066963;28;20460;-60
2023/06/18 11:32:23;;;;;;;5.70;5.20;;;24.50;68.30;;;;;;5077278;28;20472;-59
2023/06/18 11:34:50;;;;;;;5.70;5.27;;;24.50;68.40;;;;;;5070865;28;20894;-60
2023/06/18 11:37:17;;;;;;;6.43;5.43;;;24.50;68.30;;;;;;5074479;28;20457;-59
2023/06/18 11:39:44;;;;;;;5.93;5.33;;;24.50;68.20;;;;;;5072418;28;20471;-60
2023/06/18 11:42:18;;;;;;;5.23;4.83;;;24.50;68.10;;;;;;5078194;28;20514;-59
2023/06/18 11:44:52;;;;;;;5.93;5.37;;;24.50;68.10;;;;;;5066029;28;20464;-62
2023/06/18 11:47:19;;;;;;;5.00;4.60;;;24.50;68.00;;;;;;5071594;28;20530;-67
2023/06/18 11:49:47;;;;;;;5.83;5.30;;;24.50;68.00;;;;;;5077653;28;20456;-70
2023/06/18 11:52:17;;;;;;;6.37;5.77;;;24.50;68.00;;;;;;5073046;28;20469;-67
2023/06/18 11:54:45;;;;;;;6.40;5.90;;;24.50;68.30;;;;;;5072832;28;20518;-62
2023/06/18 11:57:12;;;;;;;6.00;5.43;;;24.50;68.40;;;;;;5072557;28;20459;-63
2023/06/18 11:59:41;;;;;;;5.80;5.30;;;24.50;68.50;;;;;;5070919;28;20911;-67
2023/06/18 12:02:12;;;;;;;10.60;5.10;;;24.50;67.90;;;;;;5072463;28;20484;-62
2023/06/18 12:04:38;;;;;;;12.10;6.43;;;24.60;68.20;;;;;;5072590;28;20794;-62
2023/06/18 12:07:06;;;;;;;6.00;5.57;;;24.60;68.40;;;;;;5071480;28;20460;-65
2023/06/18 12:09:33;;;;;;;6.50;6.00;;;24.60;68.10;;;;;;5071600;28;20464;-62
2023/06/18 12:12:11;;;;;;;6.40;5.80;;;24.60;68.10;;;;;;5069017;28;20551;-64
2023/06/18 12:14:42;;;;;;;6.03;5.53;;;24.60;68.20;;;;;;5072732;28;20467;-60
2023/06/18 12:17:16;;;;;;;5.77;5.20;;;24.60;68.30;;;;;;5071477;28;20539;-59
2023/06/18 12:19:49;;;;;;;6.53;5.67;;;24.70;68.10;;;;;;5070599;28;20560;-60
2023/06/18 12:22:16;;;;;;;5.80;5.30;;;24.70;67.50;;;;;;5075103;28;21033;-66
2023/06/18 12:24:43;;;;;;;6.83;5.93;;;24.70;67.50;;;;;;5081399;28;20844;-65
2023/06/18 12:27:10;;;;;;;5.50;5.03;;;24.80;67.50;;;;;;5087785;28;20463;-70
2023/06/18 12:29:44;;;;;;;6.23;5.63;;;24.80;67.70;;;;;;5072813;28;22025;-62
2023/06/18 12:32:12;;;;;;;5.93;5.33;;;24.80;67.40;;;;;;5075641;28;20458;-62
2023/06/18 12:34:40;;;;;;;6.37;5.77;;;24.90;67.80;;;;;;5073909;28;20871;-63
2023/06/18 12:37:08;;;;;;;5.27;4.67;;;24.90;67.40;;;;;;5076930;28;20463;-64
2023/06/18 12:39:35;;;;;;;6.40;5.80;;;24.90;67.10;;;;;;5073852;28;20552;-62
2023/06/18 12:42:01;;;;;;;6.13;5.30;;;25.00;67.20;;;;;;5073413;28;20507;-64
2023/06/18 12:44:28;;;;;;;6.93;6.40;;;25.00;67.10;;;;;;5074281;28;20863;-65
2023/06/18 12:46:57;;;;;;;6.10;5.60;;;25.00;67.10;;;;;;5079009;28;20460;-60
2023/06/18 12:49:24;;;;;;;5.73;5.23;;;25.10;67.00;;;;;;5078959;28;20460;-55